Time;durP1;ratioP1;P1;durP2;ratioP2;P2;SDS_P1;SDS_P2;PMS_P1;PMS_P2;Temp;Humidity;BMP_temperature;BMP_pressure;BME280_temperature;BME280_humidity;BME280_pressure;Samples;Min_cycle;Max_cycle;Signal;HPM_P1;HPM_P2
2022/05/16 00:00:27;;;;;;;10.90;3.60;;;13.40;99.90;;;;;;5019193;28;20043;-61
2022/05/16 00:02:54;;;;;;;6.60;3.25;;;13.40;99.90;;;;;;5032886;28;20535;-61
2022/05/16 00:05:21;;;;;;;6.90;3.08;;;13.40;99.90;;;;;;5023329;28;20074;-61
2022/05/16 00:07:47;;;;;;;6.22;2.33;;;13.40;99.90;;;;;;5027078;28;20049;-61
2022/05/16 00:10:14;;;;;;;7.53;2.70;;;13.40;99.90;;;;;;5018100;28;20036;-61
2022/05/16 00:12:40;;;;;;;6.10;1.83;;;13.50;99.90;;;;;;5043327;28;20094;-62
2022/05/16 00:15:08;;;;;;;5.10;2.00;;;13.50;99.90;;;;;;5017390;28;20521;-61
2022/05/16 00:17:34;;;;;;;4.28;1.70;;;13.50;99.90;;;;;;5034519;28;20041;-61
2022/05/16 00:20:00;;;;;;;7.05;1.77;;;13.60;99.90;;;;;;5035097;28;20041;-61
2022/05/16 00:22:27;;;;;;;8.77;1.60;;;13.70;99.90;;;;;;5036587;28;20033;-60
2022/05/16 00:24:53;;;;;;;4.80;1.00;;;13.80;99.90;;;;;;5011657;28;20095;-60
2022/05/16 00:27:19;;;;;;;7.20;1.33;;;13.80;99.90;;;;;;5031161;28;20102;-62
2022/05/16 00:29:45;;;;;;;6.10;1.20;;;14.00;99.90;;;;;;5028128;28;20467;-62
2022/05/16 00:32:13;;;;;;;3.85;0.98;;;14.10;99.90;;;;;;5027655;28;20051;-62
2022/05/16 00:34:39;;;;;;;2.45;0.85;;;14.20;99.90;;;;;;5032475;28;20079;-61
2022/05/16 00:37:06;;;;;;;4.38;0.77;;;14.30;99.90;;;;;;5042159;28;20053;-61
2022/05/16 00:39:32;;;;;;;4.28;1.00;;;14.40;99.90;;;;;;5015137;28;20033;-61
2022/05/16 00:41:58;;;;;;;6.15;0.80;;;14.40;99.90;;;;;;5033981;28;20052;-60
2022/05/16 00:44:25;;;;;;;6.07;1.20;;;14.40;99.90;;;;;;5031618;28;20086;-59
2022/05/16 00:46:51;;;;;;;3.53;1.17;;;14.40;99.90;;;;;;5000143;28;20065;-61
2022/05/16 00:49:28;;;;;;;4.90;0.77;;;14.30;99.90;;;;;;5031933;28;20030;-61
2022/05/16 00:52:03;;;;;;;3.78;0.95;;;14.30;99.90;;;;;;5032645;28;20103;-61
2022/05/16 00:54:41;;;;;;;3.83;0.93;;;14.30;99.90;;;;;;5025964;28;20045;-61
2022/05/16 00:57:12;;;;;;;4.28;1.08;;;14.20;99.90;;;;;;5031581;28;20518;-61
2022/05/16 01:00:02;;;;;;;5.28;0.55;;;14.10;99.90;;;;;;5035781;28;20064;-62
2022/05/16 01:05:16;;;;;;;3.55;0.75;;;14.10;99.90;;;;;;5043196;28;20045;-61
2022/05/16 01:07:44;;;;;;;4.18;0.80;;;14.00;99.90;;;;;;5037797;28;20049;-61
2022/05/16 01:10:14;;;;;;;2.92;0.75;;;14.00;99.90;;;;;;5029514;28;20071;-61
2022/05/16 01:12:43;;;;;;;5.80;1.23;;;14.00;99.90;;;;;;5028471;28;20045;-62
2022/05/16 01:15:13;;;;;;;3.63;0.80;;;13.90;99.90;;;;;;5031643;28;20033;-61
2022/05/16 01:17:39;;;;;;;2.63;0.70;;;13.90;99.90;;;;;;5033617;28;20037;-60
2022/05/16 01:20:07;;;;;;;4.35;0.90;;;13.90;99.90;;;;;;5032619;28;20037;-61
2022/05/16 01:22:44;;;;;;;2.55;0.60;;;13.90;99.90;;;;;;5034607;28;20049;-61
2022/05/16 01:25:15;;;;;;;2.95;0.60;;;13.90;99.90;;;;;;5035515;28;20136;-61
2022/05/16 01:27:46;;;;;;;2.22;0.50;;;13.90;99.90;;;;;;5030519;28;20148;-62
2022/05/16 01:30:13;;;;;;;2.63;0.70;;;13.90;99.90;;;;;;5031675;28;20045;-61
2022/05/16 01:32:39;;;;;;;4.25;0.60;;;13.90;99.90;;;;;;5033401;28;20057;-61
2022/05/16 01:35:05;;;;;;;3.60;0.80;;;14.00;99.90;;;;;;5031814;28;20043;-61
2022/05/16 01:40:16;;;;;;;4.72;0.70;;;13.90;99.90;;;;;;5020754;28;20094;-61
2022/05/16 01:42:42;;;;;;;2.88;0.70;;;13.80;99.90;;;;;;5033768;28;20133;-60
2022/05/16 01:45:08;;;;;;;3.60;0.52;;;13.80;99.90;;;;;;5033034;28;20124;-61
2022/05/16 01:47:34;;;;;;;2.75;0.70;;;13.80;99.90;;;;;;5034379;28;20460;-59
2022/05/16 01:50:00;;;;;;;3.88;0.88;;;13.80;99.90;;;;;;5001972;28;20068;-60
2022/05/16 01:52:26;;;;;;;1.23;0.40;;;13.80;99.90;;;;;;5020003;28;20546;-60
2022/05/16 01:54:52;;;;;;;2.42;0.60;;;13.80;99.90;;;;;;5033605;28;20052;-61
2022/05/16 01:57:18;;;;;;;2.38;0.50;;;13.80;99.90;;;;;;5045388;28;20041;-62
2022/05/16 01:59:43;;;;;;;2.92;1.00;;;13.80;99.90;;;;;;5047771;28;20041;-62
2022/05/16 02:02:09;;;;;;;3.80;0.65;;;13.70;99.90;;;;;;5055662;28;20045;-59
2022/05/16 02:04:35;;;;;;;3.30;0.60;;;13.70;99.90;;;;;;5022089;28;20063;-60
2022/05/16 02:07:00;;;;;;;2.50;0.73;;;13.70;99.90;;;;;;5049903;28;20095;-61
2022/05/16 02:09:26;;;;;;;4.35;0.75;;;13.70;99.90;;;;;;5035298;28;20060;-62
2022/05/16 02:11:52;;;;;;;3.00;0.65;;;13.60;99.90;;;;;;5035859;28;20722;-60
2022/05/16 02:14:18;;;;;;;4.70;0.90;;;13.60;99.90;;;;;;5035183;28;20037;-61
2022/05/16 02:16:46;;;;;;;5.40;0.80;;;13.50;99.90;;;;;;5044571;28;20045;-60
2022/05/16 02:19:12;;;;;;;3.13;0.70;;;13.50;99.90;;;;;;5034950;28;20049;-61
2022/05/16 02:24:40;;;;;;;2.78;0.68;;;13.50;99.90;;;;;;5020344;28;20059;-60
2022/05/16 02:27:12;;;;;;;1.98;0.60;;;13.40;99.90;;;;;;5019193;28;20049;-60
2022/05/16 02:29:39;;;;;;;2.97;0.57;;;13.40;99.90;;;;;;5031196;28;20084;-60
2022/05/16 02:32:06;;;;;;;5.65;0.90;;;13.40;99.90;;;;;;5035701;28;20040;-60
2022/05/16 02:34:32;;;;;;;3.10;0.82;;;13.40;99.90;;;;;;5029267;28;20098;-60
2022/05/16 02:36:58;;;;;;;4.47;0.80;;;13.40;99.90;;;;;;5028700;28;20036;-60
2022/05/16 02:39:25;;;;;;;3.58;1.00;;;13.40;99.90;;;;;;5035663;28;20044;-59
2022/05/16 02:41:51;;;;;;;3.00;0.63;;;13.30;99.90;;;;;;5037043;28;20045;-60
2022/05/16 02:44:17;;;;;;;3.15;0.73;;;13.20;99.90;;;;;;5043124;28;20105;-59
2022/05/16 02:46:44;;;;;;;5.22;0.77;;;13.20;99.90;;;;;;5018291;28;20052;-60
2022/05/16 02:49:10;;;;;;;3.83;0.75;;;13.20;99.90;;;;;;5043935;28;20190;-60
2022/05/16 02:51:36;;;;;;;2.55;0.70;;;13.20;99.90;;;;;;5034999;28;20045;-61
2022/05/16 02:54:02;;;;;;;4.82;0.60;;;13.10;99.90;;;;;;5026545;28;20052;-63
2022/05/16 02:56:28;;;;;;;5.38;0.63;;;13.10;99.90;;;;;;5017216;28;20053;-60
2022/05/16 02:58:54;;;;;;;2.92;0.60;;;13.10;99.90;;;;;;5033939;28;20116;-60
2022/05/16 03:01:20;;;;;;;3.08;0.95;;;13.00;99.90;;;;;;5037021;28;20128;-61
2022/05/16 03:03:46;;;;;;;4.78;0.90;;;13.00;99.90;;;;;;5038430;28;20037;-61
2022/05/16 03:06:12;;;;;;;3.72;1.02;;;13.00;99.90;;;;;;5048180;28;20037;-61
2022/05/16 03:08:39;;;;;;;4.22;1.00;;;12.90;99.90;;;;;;5035792;28;20044;-61
2022/05/16 03:11:06;;;;;;;3.38;0.88;;;12.90;99.90;;;;;;5028972;28;20033;-61
2022/05/16 03:13:32;;;;;;;1.73;0.50;;;12.90;99.90;;;;;;5051996;28;20120;-61
2022/05/16 03:15:59;;;;;;;2.90;0.68;;;12.90;99.90;;;;;;5027779;28;20052;-62
2022/05/16 03:18:27;;;;;;;4.03;0.77;;;12.90;99.90;;;;;;5032418;28;20048;-60
2022/05/16 03:20:53;;;;;;;2.70;0.43;;;13.00;99.90;;;;;;5038443;28;20506;-61
2022/05/16 03:23:19;;;;;;;1.90;0.77;;;13.00;99.90;;;;;;5031969;28;20077;-61
2022/05/16 03:25:45;;;;;;;3.58;0.70;;;13.00;99.90;;;;;;5037007;28;20051;-61
2022/05/16 03:28:12;;;;;;;2.88;0.47;;;12.90;99.90;;;;;;5036842;28;20399;-61
2022/05/16 03:30:38;;;;;;;2.33;0.50;;;12.90;99.90;;;;;;5031796;28;20044;-61
2022/05/16 03:33:05;;;;;;;2.90;0.70;;;12.80;99.90;;;;;;5045215;28;20045;-61
2022/05/16 03:35:31;;;;;;;3.35;0.60;;;12.90;99.90;;;;;;5042631;28;20049;-60
2022/05/16 03:37:57;;;;;;;3.75;0.80;;;12.80;99.90;;;;;;5049108;28;20037;-60
2022/05/16 03:43:09;;;;;;;3.60;0.95;;;12.80;99.90;;;;;;5023082;28;20410;-59
2022/05/16 03:45:36;;;;;;;3.55;0.90;;;12.80;99.90;;;;;;5031103;28;20049;-60
2022/05/16 03:48:03;;;;;;;4.57;0.70;;;12.70;99.90;;;;;;5014757;28;20042;-60
2022/05/16 03:50:28;;;;;;;2.75;0.55;;;12.60;99.90;;;;;;5031344;28;20037;-59
2022/05/16 03:52:54;;;;;;;2.30;0.50;;;12.60;99.90;;;;;;5053101;28;20056;-60
2022/05/16 03:55:20;;;;;;;3.83;0.70;;;12.60;99.90;;;;;;5034764;28;20109;-61
2022/05/16 03:57:46;;;;;;;3.05;0.65;;;12.50;99.90;;;;;;5049504;28;20410;-60
2022/05/16 04:00:15;;;;;;;4.50;0.80;;;12.50;99.90;;;;;;5029223;28;20491;-60
2022/05/16 04:02:41;;;;;;;5.63;0.85;;;12.50;99.90;;;;;;5028967;28;20103;-60
2022/05/16 04:05:08;;;;;;;3.72;0.63;;;12.50;99.90;;;;;;5032382;28;20049;-59
2022/05/16 04:07:35;;;;;;;2.58;0.80;;;12.50;99.90;;;;;;5036350;28;20467;-59
2022/05/16 04:10:01;;;;;;;4.25;0.65;;;12.40;99.90;;;;;;5028145;28;20079;-59
2022/05/16 04:12:27;;;;;;;5.30;0.82;;;12.40;99.90;;;;;;5032821;28;20037;-60
2022/05/16 04:14:53;;;;;;;3.65;1.13;;;12.40;99.90;;;;;;5037707;28;20117;-60
2022/05/16 04:17:19;;;;;;;4.22;0.80;;;12.40;99.90;;;;;;5035715;28;20131;-60
2022/05/16 04:19:45;;;;;;;3.03;0.68;;;12.40;99.90;;;;;;5014845;28;20033;-60
2022/05/16 04:22:12;;;;;;;3.40;0.70;;;12.40;99.90;;;;;;5037273;28;20442;-60
2022/05/16 04:24:39;;;;;;;5.15;1.08;;;12.40;99.90;;;;;;5025916;28;20049;-61
2022/05/16 04:27:05;;;;;;;3.63;0.80;;;12.40;99.90;;;;;;5020321;28;20573;-60
2022/05/16 04:29:31;;;;;;;4.72;1.10;;;12.40;99.90;;;;;;5026004;28;20132;-61
2022/05/16 04:31:57;;;;;;;3.20;1.15;;;12.40;99.90;;;;;;5038992;28;20115;-59
2022/05/16 04:34:22;;;;;;;2.10;0.60;;;12.40;99.90;;;;;;5035744;28;20120;-60
2022/05/16 04:36:48;;;;;;;2.63;0.73;;;12.50;99.90;;;;;;5033168;28;20033;-61
2022/05/16 04:39:14;;;;;;;4.95;0.93;;;12.60;99.90;;;;;;5027031;28;20032;-60
2022/05/16 04:44:24;;;;;;;4.18;0.85;;;12.60;99.90;;;;;;5029482;28;20052;-60
2022/05/16 04:46:49;;;;;;;2.83;0.70;;;12.60;99.90;;;;;;5036453;28;20041;-60
2022/05/16 04:49:15;;;;;;;2.47;0.75;;;12.60;99.90;;;;;;5035316;28;20127;-60
2022/05/16 04:51:41;;;;;;;2.58;0.85;;;12.60;99.90;;;;;;5021292;28;20053;-61
2022/05/16 04:54:07;;;;;;;3.20;1.05;;;12.60;99.90;;;;;;5029898;28;20100;-60
2022/05/16 04:56:33;;;;;;;4.20;0.95;;;12.60;99.90;;;;;;5032264;28;20057;-60
2022/05/16 04:59:00;;;;;;;3.35;0.90;;;12.70;99.90;;;;;;5040768;28;20574;-60
2022/05/16 05:01:26;;;;;;;2.72;0.80;;;12.70;99.90;;;;;;5010410;28;20046;-60
2022/05/16 05:03:52;;;;;;;2.75;0.85;;;12.70;99.90;;;;;;5038544;28;20117;-60
2022/05/16 05:06:18;;;;;;;3.15;0.90;;;12.80;99.90;;;;;;5034195;28;20510;-60
2022/05/16 05:08:44;;;;;;;4.18;1.00;;;12.90;99.90;;;;;;5036051;28;20040;-60
2022/05/16 05:16:39;;;;;;;5.60;1.17;;;13.00;99.90;;;;;;5033514;28;20037;-59
2022/05/16 05:19:06;;;;;;;5.65;0.80;;;13.10;99.90;;;;;;5034764;28;20484;-60
2022/05/16 05:21:31;;;;;;;4.43;0.85;;;13.20;99.90;;;;;;5038965;28;20079;-60
2022/05/16 05:23:58;;;;;;;5.32;1.20;;;13.30;99.90;;;;;;5031696;28;20073;-58
2022/05/16 05:26:23;;;;;;;3.58;0.90;;;13.40;99.90;;;;;;5019595;28;20099;-59
2022/05/16 05:28:49;;;;;;;4.25;1.20;;;13.50;99.90;;;;;;5039631;28;20045;-60
2022/05/16 05:31:19;;;;;;;4.47;1.02;;;13.50;99.90;;;;;;5043238;28;20361;-60
2022/05/16 05:33:45;;;;;;;3.95;0.98;;;13.60;99.90;;;;;;5035525;28;20037;-60
2022/05/16 05:36:11;;;;;;;4.47;0.82;;;13.60;99.90;;;;;;5055877;28;20044;-60
2022/05/16 05:38:37;;;;;;;3.17;1.13;;;13.90;99.90;;;;;;5022185;28;20037;-60
2022/05/16 05:41:05;;;;;;;4.15;1.08;;;14.10;99.90;;;;;;5036467;28;20313;-60
2022/05/16 05:43:31;;;;;;;4.07;1.00;;;14.10;99.90;;;;;;5041089;28;20512;-60
2022/05/16 05:45:57;;;;;;;3.78;0.82;;;14.10;99.90;;;;;;5029570;28;20451;-60
2022/05/16 05:48:23;;;;;;;6.30;0.85;;;14.10;99.90;;;;;;5038922;28;20045;-60
2022/05/16 05:50:48;;;;;;;4.40;0.95;;;14.10;99.90;;;;;;5037400;28;20621;-60
2022/05/16 05:53:14;;;;;;;4.55;1.05;;;14.20;99.90;;;;;;5037959;28;20122;-59
2022/05/16 05:55:40;;;;;;;2.88;0.80;;;14.20;99.90;;;;;;5040218;28;20049;-59
2022/05/16 05:58:06;;;;;;;4.72;0.95;;;14.30;99.90;;;;;;5060384;28;20040;-61
2022/05/16 06:00:32;;;;;;;3.80;0.70;;;14.30;99.90;;;;;;5038304;28;20036;-59
2022/05/16 06:03:00;;;;;;;4.97;0.90;;;14.40;99.90;;;;;;5035830;28;20055;-59
2022/05/16 06:05:27;;;;;;;2.47;0.70;;;14.50;99.90;;;;;;5018763;28;20173;-60
2022/05/16 06:07:53;;;;;;;3.33;0.80;;;14.40;99.90;;;;;;5036555;28;20053;-59
2022/05/16 06:10:19;;;;;;;4.88;0.95;;;14.40;99.90;;;;;;5044442;28;20037;-60
2022/05/16 06:12:45;;;;;;;2.47;1.02;;;14.50;99.90;;;;;;5041000;28;20511;-60
2022/05/16 06:15:12;;;;;;;3.72;0.85;;;14.70;99.90;;;;;;5037397;28;20033;-60
2022/05/16 06:17:38;;;;;;;1.67;0.43;;;14.80;99.90;;;;;;5040235;28;20047;-59
2022/05/16 06:20:07;;;;;;;3.50;1.15;;;15.00;99.90;;;;;;5039527;28;20083;-60
2022/05/16 06:22:37;;;;;;;5.03;0.88;;;15.30;99.90;;;;;;5034662;28;20284;-61
2022/05/16 06:25:31;;;;;;;4.90;0.70;;;15.50;99.90;;;;;;5041457;28;20045;-60
2022/05/16 06:27:58;;;;;;;3.00;0.80;;;15.80;99.90;;;;;;5040302;28;20134;-60
2022/05/16 06:30:24;;;;;;;5.35;0.90;;;15.80;99.90;;;;;;5053817;28;20064;-60
2022/05/16 06:32:50;;;;;;;5.97;1.30;;;15.70;99.90;;;;;;5039530;28;20078;-60
2022/05/16 06:35:16;;;;;;;3.45;0.82;;;15.50;99.90;;;;;;5035842;28;20250;-59
2022/05/16 06:37:42;;;;;;;4.68;0.95;;;15.40;99.90;;;;;;5036659;28;20548;-60
2022/05/16 06:40:09;;;;;;;4.22;0.77;;;15.40;99.90;;;;;;5041099;28;20033;-61
2022/05/16 06:42:36;;;;;;;3.83;1.02;;;15.40;99.90;;;;;;5037225;28;20073;-60
2022/05/16 06:45:03;;;;;;;6.93;1.10;;;15.30;99.90;;;;;;5049416;28;20049;-60
2022/05/16 06:47:28;;;;;;;4.07;1.10;;;15.40;99.90;;;;;;5034166;28;20084;-60
2022/05/16 06:49:54;;;;;;;3.40;1.00;;;15.60;99.90;;;;;;5037750;28;20044;-60
2022/05/16 06:52:21;;;;;;;4.30;0.90;;;15.50;99.90;;;;;;5020351;28;20052;-60
2022/05/16 06:54:47;;;;;;;4.85;1.15;;;15.70;99.90;;;;;;5040673;28;20076;-60
2022/05/16 06:57:13;;;;;;;4.50;1.20;;;15.60;99.90;;;;;;5039775;28;20045;-60
2022/05/16 06:59:39;;;;;;;7.43;1.30;;;15.70;99.90;;;;;;5036083;28;20112;-61
2022/05/16 07:02:07;;;;;;;2.50;0.70;;;16.00;99.90;;;;;;5052719;28;20112;-60
2022/05/16 07:04:34;;;;;;;5.00;1.35;;;16.20;99.90;;;;;;5038207;28;20088;-60
2022/05/16 07:07:00;;;;;;;3.80;1.02;;;16.50;99.90;;;;;;5043869;28;20037;-60
2022/05/16 07:09:26;;;;;;;5.05;1.02;;;16.80;99.90;;;;;;5019072;28;20397;-60
2022/05/16 07:11:52;;;;;;;5.25;1.20;;;16.90;99.90;;;;;;5038267;28;20072;-60
2022/05/16 07:14:17;;;;;;;6.65;1.10;;;17.00;99.90;;;;;;5036109;28;20083;-60
2022/05/16 07:16:43;;;;;;;3.40;1.00;;;17.10;99.90;;;;;;5036322;28;20155;-60
2022/05/16 07:19:09;;;;;;;3.90;1.35;;;17.20;99.90;;;;;;5050354;28;20394;-61
2022/05/16 07:21:35;;;;;;;7.22;1.50;;;17.40;99.90;;;;;;5040828;28;20041;-60
2022/05/16 07:24:01;;;;;;;5.80;1.00;;;17.60;99.90;;;;;;5016504;28;20068;-60
2022/05/16 07:29:11;;;;;;;3.85;1.02;;;17.90;99.90;;;;;;5033706;28;20072;-59
2022/05/16 07:31:37;;;;;;;5.75;0.90;;;18.00;99.90;;;;;;5038066;28;20060;-60
2022/05/16 07:34:04;;;;;;;5.18;1.35;;;18.20;99.90;;;;;;5033368;28;20041;-60
2022/05/16 07:36:29;;;;;;;4.43;1.13;;;18.30;99.90;;;;;;5037121;28;20041;-60
2022/05/16 07:38:55;;;;;;;3.65;0.98;;;18.50;99.90;;;;;;5032358;28;20075;-60
2022/05/16 07:41:21;;;;;;;3.88;1.00;;;18.70;99.90;;;;;;5037698;28;20087;-60
2022/05/16 07:43:47;;;;;;;4.88;1.33;;;18.80;99.90;;;;;;5035582;28;20170;-60
2022/05/16 07:46:13;;;;;;;4.40;1.02;;;18.80;99.90;;;;;;5043990;28;20044;-60
2022/05/16 07:48:38;;;;;;;3.20;1.08;;;18.70;99.90;;;;;;5034681;28;20049;-60
2022/05/16 07:51:04;;;;;;;4.22;1.08;;;19.00;99.90;;;;;;5030595;28;20321;-59
2022/05/16 07:53:30;;;;;;;8.13;1.20;;;19.10;99.90;;;;;;5037263;28;20042;-60
2022/05/16 07:55:57;;;;;;;4.63;1.00;;;19.10;99.90;;;;;;5030135;28;20530;-60
2022/05/16 07:58:25;;;;;;;6.85;1.70;;;18.70;99.90;;;;;;5052948;28;20537;-60
2022/05/16 08:00:52;;;;;;;4.15;1.08;;;18.70;99.90;;;;;;5034770;28;20492;-60
2022/05/16 08:03:23;;;;;;;4.35;1.08;;;19.10;99.90;;;;;;5033562;28;20059;-60
2022/05/16 08:05:49;;;;;;;5.80;1.30;;;19.30;99.90;;;;;;5035867;28;20073;-59
2022/05/16 08:11:00;;;;;;;4.40;1.02;;;19.20;99.90;;;;;;5038814;28;20479;-59
2022/05/16 08:13:27;;;;;;;5.45;1.45;;;19.40;99.90;;;;;;5026983;28;20102;-59
2022/05/16 08:15:54;;;;;;;5.50;1.17;;;19.50;99.90;;;;;;5028199;28;20082;-60
2022/05/16 08:18:19;;;;;;;5.10;1.08;;;19.70;99.90;;;;;;5019792;28;20336;-60
2022/05/16 08:20:47;;;;;;;4.25;0.80;;;20.00;99.90;;;;;;5032960;28;20457;-60
2022/05/16 08:23:16;;;;;;;4.05;0.85;;;20.00;99.90;;;;;;5032011;28;20051;-61
2022/05/16 08:25:45;;;;;;;5.53;0.90;;;20.20;99.90;;;;;;5033541;28;20044;-60
2022/05/16 08:28:12;;;;;;;6.15;1.20;;;20.40;99.90;;;;;;5034959;28;20076;-60
2022/05/16 08:30:38;;;;;;;2.25;0.63;;;20.50;99.90;;;;;;5040574;28;20400;-60
2022/05/16 08:33:04;;;;;;;8.75;1.30;;;20.50;99.90;;;;;;5007311;28;20038;-60
2022/05/16 08:35:31;;;;;;;3.70;0.75;;;20.50;99.90;;;;;;5032185;28;20314;-59
2022/05/16 08:41:02;;;;;;;7.32;0.90;;;20.80;99.90;;;;;;5034089;28;20395;-60
2022/05/16 08:43:46;;;;;;;4.78;0.80;;;20.70;99.90;;;;;;5033902;28;20136;-60
2022/05/16 08:46:55;;;;;;;4.07;1.00;;;20.60;99.90;;;;;;5027228;28;20051;-59
2022/05/16 08:49:36;;;;;;;4.05;0.95;;;20.60;99.90;;;;;;5044868;28;20056;-60
2022/05/16 08:52:29;;;;;;;7.07;1.30;;;20.90;99.90;;;;;;5033798;28;20127;-60
2022/05/16 08:55:05;;;;;;;6.10;1.60;;;20.80;99.90;;;;;;5036179;28;20118;-60
2022/05/16 08:57:44;;;;;;;5.10;1.10;;;21.00;99.90;;;;;;5035956;28;20064;-59
2022/05/16 09:01:00;;;;;;;4.65;0.95;;;21.20;99.90;;;;;;5037484;28;20049;-60
2022/05/16 09:03:54;;;;;;;4.20;1.02;;;21.30;99.90;;;;;;5018498;28;20093;-61
2022/05/16 09:06:53;;;;;;;10.30;1.52;;;20.80;99.90;;;;;;5027310;28;20142;-59
2022/05/16 09:09:22;;;;;;;3.80;0.93;;;20.80;99.90;;;;;;5027267;28;20045;-60
2022/05/16 09:12:11;;;;;;;7.03;1.02;;;20.90;99.90;;;;;;5027484;28;20057;-60
2022/05/16 09:14:37;;;;;;;4.50;0.80;;;21.00;99.90;;;;;;5061118;28;20061;-60
2022/05/16 09:17:11;;;;;;;7.25;1.20;;;21.20;99.90;;;;;;5028925;28;20041;-60
2022/05/16 09:19:47;;;;;;;5.18;1.15;;;21.30;99.90;;;;;;5027683;28;20436;-60
2022/05/16 09:22:34;;;;;;;5.50;1.42;;;21.50;99.90;;;;;;5027741;28;20045;-60
2022/05/16 09:25:21;;;;;;;6.60;2.00;;;21.30;99.90;;;;;;5027588;28;20083;-61
2022/05/16 09:30:56;;;;;;;7.10;1.73;;;21.70;99.90;;;;;;5028719;28;20046;-61
2022/05/16 09:33:26;;;;;;;5.55;1.60;;;21.70;99.90;;;;;;5028444;28;20153;-59
2022/05/16 09:36:05;;;;;;;7.00;1.65;;;22.10;99.90;;;;;;5027378;28;20045;-60
2022/05/16 09:38:31;;;;;;;7.15;1.33;;;21.70;99.90;;;;;;5028858;28;20510;-60
2022/05/16 09:41:03;;;;;;;6.95;1.60;;;21.80;99.90;;;;;;5027396;28;20049;-60
2022/05/16 09:43:38;;;;;;;4.80;1.20;;;21.70;99.90;;;;;;5060729;28;20053;-60
2022/05/16 09:46:39;;;;;;;6.25;1.08;;;21.90;99.90;;;;;;5044207;28;20084;-60
2022/05/16 09:49:10;;;;;;;4.93;1.15;;;22.00;99.90;;;;;;5011121;28;20464;-60
2022/05/16 09:51:51;;;;;;;4.50;1.20;;;22.10;99.90;;;;;;5027102;28;20053;-60
2022/05/16 09:54:31;;;;;;;5.13;1.20;;;22.10;99.90;;;;;;5027046;28;20037;-60
2022/05/16 09:57:22;;;;;;;5.35;1.05;;;21.90;99.90;;;;;;5026930;28;20054;-60
2022/05/16 09:59:54;;;;;;;5.80;1.10;;;22.00;99.90;;;;;;5043661;28;20420;-59
2022/05/16 10:02:35;;;;;;;5.83;1.20;;;22.10;99.90;;;;;;5028399;28;20041;-59
2022/05/16 10:05:03;;;;;;;3.60;0.80;;;22.10;98.80;;;;;;5026898;28;20137;-60
2022/05/16 10:07:43;;;;;;;5.93;1.50;;;22.20;97.50;;;;;;5028466;28;20060;-59
2022/05/16 10:10:15;;;;;;;6.05;1.90;;;22.20;99.00;;;;;;5030546;28;20120;-60
2022/05/16 10:12:41;;;;;;;6.82;1.55;;;22.40;98.00;;;;;;5032457;28;20120;-60
2022/05/16 10:15:09;;;;;;;4.55;1.20;;;22.70;96.50;;;;;;5031848;28;20038;-60
2022/05/16 10:17:37;;;;;;;5.22;1.23;;;23.10;95.40;;;;;;5031901;28;20416;-60
2022/05/16 10:20:11;;;;;;;4.82;1.20;;;23.40;93.20;;;;;;5032054;28;20063;-60
2022/05/16 10:22:37;;;;;;;5.55;1.10;;;23.60;92.10;;;;;;5030822;28;20090;-60
2022/05/16 10:25:09;;;;;;;7.03;1.42;;;24.10;91.20;;;;;;5031688;28;20547;-60
2022/05/16 10:27:38;;;;;;;7.10;1.42;;;24.10;91.20;;;;;;5030344;28;20139;-60
2022/05/16 10:30:20;;;;;;;3.90;1.10;;;24.50;91.70;;;;;;5047255;28;20132;-60
2022/05/16 10:35:43;;;;;;;7.15;1.17;;;25.10;89.20;;;;;;5030081;28;20497;-60
2022/05/16 10:38:46;;;;;;;7.15;1.23;;;25.40;85.90;;;;;;5030216;28;20412;-61
2022/05/16 10:41:31;;;;;;;;;;;25.50;82.40;;;;;;5014087;28;20049;-60
2022/05/16 10:44:16;;;;;;;6.22;1.15;;;25.30;88.90;;;;;;5029791;28;20364;-60
2022/05/16 10:46:48;;;;;;;6.13;1.02;;;25.40;83.00;;;;;;5063206;28;20049;-59
2022/05/16 10:49:20;;;;;;;6.40;1.25;;;25.50;78.40;;;;;;5031300;28;20037;-60
2022/05/16 10:52:08;;;;;;;5.80;1.10;;;25.70;82.10;;;;;;5063103;28;20041;-60
2022/05/16 10:54:34;;;;;;;5.45;1.20;;;25.90;79.10;;;;;;5031093;28;20142;-59
2022/05/16 10:57:07;;;;;;;6.38;1.40;;;26.00;76.40;;;;;;5029453;28;20061;-60
2022/05/16 10:59:54;;;;;;;6.05;1.00;;;26.10;74.00;;;;;;5031088;28;20048;-60
2022/05/16 11:02:29;;;;;;;8.23;1.98;;;26.50;74.20;;;;;;5030855;28;20068;-60
2022/05/16 11:05:07;;;;;;;4.55;1.30;;;26.90;74.60;;;;;;5063443;28;20046;-60
2022/05/16 11:07:42;;;;;;;5.70;1.35;;;27.60;73.90;;;;;;5029406;28;20122;-60
2022/05/16 11:10:21;;;;;;;8.45;1.30;;;28.00;68.10;;;;;;5063178;28;20060;-60
2022/05/16 11:12:53;;;;;;;5.68;1.50;;;27.50;67.30;;;;;;5029396;28;20077;-60
2022/05/16 11:15:27;;;;;;;5.80;0.90;;;27.00;68.70;;;;;;5029071;28;20051;-59
2022/05/16 11:18:04;;;;;;;8.02;1.73;;;27.10;66.90;;;;;;5030812;28;20530;-61
2022/05/16 11:21:10;;;;;;;8.48;1.58;;;27.10;71.10;;;;;;5030601;28;20045;-60
2022/05/16 11:23:58;;;;;;;4.07;1.10;;;27.40;68.40;;;;;;5028433;28;20088;-60
2022/05/16 11:26:56;;;;;;;8.55;1.02;;;27.60;67.20;;;;;;5029371;28;20099;-60
2022/05/16 11:30:00;;;;;;;8.75;1.38;;;27.30;69.20;;;;;;5017154;28;20049;-60
2022/05/16 11:32:44;;;;;;;9.30;1.50;;;27.00;65.80;;;;;;5058934;28;20143;-60
2022/05/16 11:35:31;;;;;;;4.35;0.90;;;26.70;68.20;;;;;;5029001;28;20061;-60
2022/05/16 11:38:25;;;;;;;6.55;1.17;;;26.80;67.00;;;;;;5028856;28;20077;-60
2022/05/16 11:41:09;;;;;;;4.68;0.90;;;26.60;71.10;;;;;;5028637;28;20040;-60
2022/05/16 11:43:43;;;;;;;6.88;1.30;;;26.90;69.50;;;;;;5028573;28;20390;-60
2022/05/16 11:46:13;;;;;;;6.13;1.30;;;26.90;69.40;;;;;;5062403;28;20084;-60
2022/05/16 11:49:13;;;;;;;5.18;1.25;;;27.00;67.90;;;;;;5030003;28;20056;-59
2022/05/16 11:51:56;;;;;;;7.18;1.20;;;26.90;66.50;;;;;;5029789;28;20501;-60
2022/05/16 11:54:47;;;;;;;7.85;1.23;;;26.40;69.50;;;;;;5028685;28;20053;-60
2022/05/16 12:02:59;;;;;;;5.45;1.30;;;26.90;67.20;;;;;;5029801;28;20511;-61
2022/05/16 12:05:26;;;;;;;8.68;1.10;;;26.30;68.20;;;;;;5028174;28;20045;-59
2022/05/16 12:08:19;;;;;;;4.63;1.05;;;25.90;69.70;;;;;;5061479;28;20492;-59
2022/05/16 12:11:09;;;;;;;7.70;1.40;;;25.60;71.00;;;;;;5028115;28;20540;-60
2022/05/16 12:13:39;;;;;;;8.43;1.25;;;25.10;76.70;;;;;;5027860;28;20565;-60
2022/05/16 12:16:14;;;;;;;5.07;1.10;;;24.60;80.70;;;;;;5028021;28;20088;-60
2022/05/16 12:19:17;;;;;;;5.97;1.25;;;24.10;79.50;;;;;;5029678;28;20037;-60
2022/05/16 12:22:07;;;;;;;5.25;1.20;;;24.00;84.70;;;;;;5029555;28;20098;-59
2022/05/16 12:24:41;;;;;;;6.00;1.13;;;24.00;82.10;;;;;;5029559;28;20064;-60
2022/05/16 12:27:27;;;;;;;7.93;1.42;;;24.00;77.80;;;;;;5061469;28;20049;-60
2022/05/16 12:29:56;;;;;;;6.15;1.10;;;24.10;79.30;;;;;;5027713;28;20387;-60
2022/05/16 12:32:31;;;;;;;9.15;1.30;;;23.90;78.80;;;;;;5027330;28;20500;-60
2022/05/16 12:35:07;;;;;;;6.18;1.20;;;24.00;78.30;;;;;;5028025;28;20037;-60
2022/05/16 12:37:35;;;;;;;4.82;1.08;;;24.10;80.50;;;;;;5027694;28;20045;-60
2022/05/16 12:40:25;;;;;;;7.90;1.63;;;24.20;80.30;;;;;;5029310;28;20045;-59
2022/05/16 12:43:09;;;;;;;5.65;1.13;;;24.40;80.60;;;;;;5027685;28;20057;-60
2022/05/16 12:45:56;;;;;;;5.97;1.10;;;24.70;80.40;;;;;;5029191;28;20041;-60
2022/05/16 12:48:38;;;;;;;5.07;0.80;;;25.00;77.50;;;;;;5027644;28;20049;-60
2022/05/16 12:51:10;;;;;;;4.90;0.93;;;25.30;71.20;;;;;;5029130;28;20048;-61
2022/05/16 12:54:01;;;;;;;6.20;0.98;;;25.60;66.30;;;;;;5027258;28;20057;-60
2022/05/16 12:56:45;;;;;;;6.20;0.60;;;25.90;62.40;;;;;;5027675;28;20108;-60
2022/05/16 12:59:49;;;;;;;5.47;0.80;;;25.90;61.00;;;;;;5028905;28;20046;-61
2022/05/16 13:02:42;;;;;;;5.18;0.70;;;26.00;63.30;;;;;;5011122;28;20045;-60
2022/05/16 13:05:22;;;;;;;6.00;0.90;;;26.10;62.70;;;;;;5011417;28;20050;-61
2022/05/16 13:08:16;;;;;;;4.57;0.90;;;26.20;60.40;;;;;;5029474;28;20064;-59
2022/05/16 13:10:45;;;;;;;5.80;1.00;;;26.00;60.80;;;;;;5028785;28;20496;-60
2022/05/16 13:13:40;;;;;;;6.63;0.93;;;25.90;59.80;;;;;;5027345;28;20041;-61
2022/05/16 13:16:28;;;;;;;4.05;1.10;;;26.00;61.10;;;;;;5027482;28;20053;-61
2022/05/16 13:19:10;;;;;;;4.18;1.08;;;26.30;63.20;;;;;;5028702;28;20085;-60
2022/05/16 13:21:42;;;;;;;4.17;0.70;;;26.40;59.40;;;;;;5028758;28;20042;-60
2022/05/16 13:24:13;;;;;;;5.90;0.85;;;26.50;58.40;;;;;;5027721;28;20407;-60
2022/05/16 13:29:33;;;;;;;5.38;0.88;;;26.50;59.40;;;;;;5028520;28;20530;-61
2022/05/16 13:32:06;;;;;;;4.65;0.77;;;26.50;59.00;;;;;;5028649;28;20037;-60
2022/05/16 13:34:42;;;;;;;4.40;0.82;;;26.40;57.80;;;;;;5060630;28;20053;-61
2022/05/16 13:37:09;;;;;;;5.38;1.10;;;26.30;57.60;;;;;;5060681;28;20037;-61
2022/05/16 13:39:44;;;;;;;9.93;1.20;;;26.20;59.00;;;;;;5027009;28;20045;-61
2022/05/16 13:42:11;;;;;;;6.40;0.80;;;26.30;59.00;;;;;;5044975;28;20053;-61
2022/05/16 13:44:44;;;;;;;6.40;1.08;;;26.00;61.00;;;;;;5031009;28;20049;-61
2022/05/16 13:47:14;;;;;;;8.00;1.20;;;26.00;61.10;;;;;;5032438;28;20076;-60
2022/05/16 13:49:41;;;;;;;5.43;1.05;;;26.00;60.90;;;;;;5032071;28;20084;-60
2022/05/16 13:52:40;;;;;;;6.18;1.13;;;25.90;61.00;;;;;;5030953;28;20045;-60